createdAt,value
2018-09-17T00:00:18.299Z,17.29
2018-09-17T00:01:18.348Z,17.23
2018-09-17T00:02:18.424Z,17.28
2018-09-17T00:03:18.451Z,17.23
2018-09-17T00:04:18.507Z,17.25
2018-09-17T00:05:18.554Z,17.23
2018-09-17T00:06:18.603Z,17.20
2018-09-17T00:07:18.688Z,17.25
2018-09-17T00:08:18.700Z,17.26
2018-09-17T00:09:18.760Z,17.25
2018-09-17T00:10:18.809Z,17.29
2018-09-17T00:11:18.853Z,17.23
2018-09-17T00:12:18.921Z,17.26
2018-09-17T00:13:18.988Z,17.18
2018-09-17T00:14:19.020Z,17.20
2018-09-17T00:15:19.058Z,17.20
2018-09-17T00:16:19.111Z,17.17
2018-09-17T00:17:19.155Z,17.26
2018-09-17T00:18:19.222Z,17.13
2018-09-17T00:19:19.272Z,17.25
2018-09-17T00:20:19.311Z,17.15
2018-09-17T00:21:19.363Z,17.20
2018-09-17T00:22:19.407Z,17.10
2018-09-17T00:23:19.475Z,17.14
2018-09-17T00:24:19.524Z,17.15
2018-09-17T00:25:19.565Z,17.10
2018-09-17T00:26:19.606Z,17.15
2018-09-17T00:27:19.665Z,17.11
2018-09-17T00:28:19.710Z,17.15
2018-09-17T00:29:19.779Z,17.08
2018-09-17T00:30:19.807Z,17.13
2018-09-17T00:31:19.854Z,17.08
2018-09-17T00:32:19.907Z,17.04
2018-09-17T00:33:19.963Z,17.07
2018-09-17T00:34:20.030Z,17.00
2018-09-17T00:35:20.057Z,17.14
2018-09-17T00:36:20.139Z,17.10
2018-09-17T00:37:20.161Z,17.15
2018-09-17T00:38:20.208Z,17.08
2018-09-17T00:39:20.292Z,17.11
2018-09-17T00:40:20.309Z,17.11
2018-09-17T00:41:20.390Z,17.10
2018-09-17T00:42:20.407Z,17.18
2018-09-17T00:43:20.459Z,17.14
2018-09-17T00:44:20.513Z,17.13
2018-09-17T00:45:20.558Z,17.11
2018-09-17T00:46:20.626Z,17.13
2018-09-17T00:47:20.679Z,17.28
2018-09-17T00:48:20.757Z,17.07
2018-09-17T00:49:20.787Z,17.18
2018-09-17T00:50:20.809Z,17.14
2018-09-17T00:51:20.861Z,17.17
2018-09-17T00:52:20.933Z,17.18
2018-09-17T00:53:20.963Z,17.17
2018-09-17T00:54:21.010Z,17.20
2018-09-17T00:55:21.064Z,17.25
2018-09-17T00:56:21.104Z,17.11
2018-09-17T00:57:21.186Z,17.17
2018-09-17T00:58:21.212Z,17.17
2018-09-17T00:59:21.261Z,17.11
2018-09-17T01:00:21.311Z,17.14
2018-09-17T01:01:21.358Z,17.15
2018-09-17T01:02:21.486Z,17.10
2018-09-17T01:03:21.486Z,17.14
2018-09-17T01:04:21.510Z,17.14
2018-09-17T01:05:21.560Z,17.11
2018-09-17T01:06:21.611Z,17.13
2018-09-17T01:07:21.659Z,17.14
2018-09-17T01:08:21.739Z,17.15
2018-09-17T01:09:21.761Z,17.14
2018-09-17T01:10:21.809Z,17.06
2018-09-17T01:11:21.861Z,17.06
2018-09-17T01:12:21.909Z,17.10
2018-09-17T01:13:21.983Z,17.06
2018-09-17T01:14:22.012Z,17.00
2018-09-17T01:15:22.088Z,16.96
2018-09-17T01:16:22.131Z,17.00
2018-09-17T01:17:22.161Z,16.96
2018-09-17T01:18:22.215Z,16.86
2018-09-17T01:19:22.262Z,16.89
2018-09-17T01:20:22.336Z,16.90
2018-09-17T01:21:22.361Z,16.90
2018-09-17T01:22:22.413Z,16.78
2018-09-17T01:23:22.458Z,16.85
2018-09-17T01:24:22.509Z,16.83
2018-09-17T01:25:22.584Z,16.83
2018-09-17T01:26:22.609Z,16.78
2018-09-17T01:27:22.663Z,16.77
2018-09-17T01:28:22.712Z,16.77
2018-09-17T01:29:22.789Z,16.80
2018-09-17T01:30:22.873Z,16.77
2018-09-17T01:31:22.874Z,16.75
2018-09-17T01:32:22.938Z,16.80
2018-09-17T01:33:22.980Z,16.80
2018-09-17T01:34:23.034Z,16.77
2018-09-17T01:35:23.064Z,16.67
2018-09-17T01:36:23.153Z,16.65
2018-09-17T01:37:23.169Z,16.74
2018-09-17T01:38:23.219Z,16.63
2018-09-17T01:39:23.264Z,16.60
2018-09-17T01:40:23.319Z,16.60
2018-09-17T01:41:23.384Z,16.60
2018-09-17T01:42:23.432Z,16.62
2018-09-17T01:43:23.463Z,16.58
2018-09-17T01:44:23.512Z,16.62
2018-09-17T01:45:23.560Z,16.60
2018-09-17T01:46:23.672Z,16.58
2018-09-17T01:47:23.688Z,16.53
2018-09-17T01:48:23.715Z,16.55
2018-09-17T01:49:23.766Z,16.42
2018-09-17T01:50:23.814Z,16.40
2018-09-17T01:51:23.866Z,16.49
2018-09-17T01:52:23.934Z,16.45
2018-09-17T01:53:23.965Z,16.44
2018-09-17T01:54:24.014Z,16.42
2018-09-17T01:55:24.061Z,16.41
2018-09-17T01:56:24.120Z,16.42
2018-09-17T01:57:24.193Z,16.30
2018-09-17T01:58:24.221Z,16.38
2018-09-17T01:59:24.262Z,16.31
2018-09-17T02:00:24.309Z,16.31
2018-09-17T02:01:24.379Z,16.27
2018-09-17T02:02:24.428Z,16.27
2018-09-17T02:03:24.462Z,16.31
2018-09-17T02:04:24.539Z,16.20
2018-09-17T02:05:24.571Z,16.25
2018-09-17T02:06:24.611Z,16.23
2018-09-17T02:07:24.668Z,16.23
2018-09-17T02:08:24.760Z,16.27
2018-09-17T02:09:24.779Z,16.25
2018-09-17T02:10:24.836Z,16.27
2018-09-17T02:11:24.858Z,16.16
2018-09-17T02:12:24.949Z,16.16
2018-09-17T02:13:24.961Z,16.25
2018-09-17T02:14:25.039Z,16.15
2018-09-17T02:15:25.062Z,16.22
2018-09-17T02:16:25.112Z,16.16
2018-09-17T02:17:25.160Z,16.15
2018-09-17T02:18:25.218Z,16.09
2018-09-17T02:19:25.329Z,16.06
2018-09-17T02:20:25.314Z,16.16
2018-09-17T02:21:25.359Z,16.11
2018-09-17T02:22:25.412Z,16.01
2018-09-17T02:23:25.456Z,16.00
2018-09-17T02:24:25.552Z,16.03
2018-09-17T02:25:25.560Z,15.97
2018-09-17T02:26:25.613Z,15.96
2018-09-17T02:27:25.675Z,15.93
2018-09-17T02:28:25.707Z,15.94
2018-09-17T02:29:25.781Z,15.85
2018-09-17T02:30:25.811Z,15.82
2018-09-17T02:31:25.864Z,15.84
2018-09-17T02:32:25.905Z,15.92
2018-09-17T02:33:25.956Z,15.92
2018-09-17T02:34:26.034Z,15.78
2018-09-17T02:35:26.068Z,15.81
2018-09-17T02:36:26.104Z,15.81
2018-09-17T02:37:26.161Z,15.88
2018-09-17T02:38:26.208Z,15.85
2018-09-17T02:39:26.286Z,15.86
2018-09-17T02:40:26.309Z,15.92
2018-09-17T02:41:26.356Z,15.94
2018-09-17T02:42:26.406Z,15.93
2018-09-17T02:43:26.454Z,16.04
2018-09-17T02:44:26.537Z,15.97
2018-09-17T02:45:26.551Z,15.96
2018-09-17T02:46:26.603Z,15.94
2018-09-17T02:47:26.658Z,16.01
2018-09-17T02:48:27.134Z,16.03
2018-09-17T02:49:26.774Z,16.03
2018-09-17T02:50:26.824Z,15.94
2018-09-17T02:51:26.868Z,15.99
2018-09-17T02:52:27.040Z,15.94
2018-09-17T02:53:26.962Z,15.93
2018-09-17T02:54:27.000Z,16.00
2018-09-17T02:55:27.070Z,16.00
2018-09-17T02:56:27.098Z,15.94
2018-09-17T02:57:27.173Z,15.85
2018-09-17T02:58:27.202Z,15.94
2018-09-17T02:59:27.324Z,15.88
2018-09-17T03:00:27.318Z,15.93
2018-09-17T03:01:27.368Z,15.94
2018-09-17T03:02:27.427Z,15.89
2018-09-17T03:03:27.452Z,15.88
2018-09-17T03:04:27.502Z,15.88
2018-09-17T03:05:27.547Z,15.94
2018-09-17T03:06:27.599Z,15.92
2018-09-17T03:07:27.669Z,15.93
2018-09-17T03:08:27.695Z,15.96
2018-09-17T03:09:27.745Z,15.97
2018-09-17T03:10:27.797Z,15.97
2018-09-17T03:11:27.844Z,15.99
2018-09-17T03:12:27.918Z,16.03
2018-09-17T03:13:27.955Z,16.03
2018-09-17T03:14:27.997Z,16.04
2018-09-17T03:15:28.070Z,15.99
2018-09-17T03:16:28.094Z,16.03
2018-09-17T03:17:28.168Z,16.11
2018-09-17T03:18:28.200Z,16.01
2018-09-17T03:19:28.246Z,15.99
2018-09-17T03:20:28.294Z,16.20
2018-09-17T03:21:28.347Z,16.15
2018-09-17T03:22:28.432Z,16.12
2018-09-17T03:23:28.444Z,16.15
2018-09-17T03:24:28.556Z,16.18
2018-09-17T03:25:28.538Z,16.23
2018-09-17T03:26:28.591Z,16.26
2018-09-17T03:27:28.659Z,16.26
2018-09-17T03:28:28.696Z,16.37
2018-09-17T03:29:28.743Z,16.31
2018-09-17T03:30:28.826Z,16.40
2018-09-17T03:31:28.862Z,16.31
2018-09-17T03:32:28.909Z,16.34
2018-09-17T03:33:28.972Z,16.40
2018-09-17T03:34:28.997Z,16.44
2018-09-17T03:35:29.044Z,16.44
2018-09-17T03:36:29.120Z,16.59
2018-09-17T03:37:29.143Z,16.59
2018-09-17T03:38:29.211Z,16.56
2018-09-17T03:39:29.246Z,16.56
2018-09-17T03:40:29.287Z,16.65
2018-09-17T03:41:29.342Z,16.55
2018-09-17T03:42:29.390Z,16.60
2018-09-17T03:43:29.475Z,16.67
2018-09-17T03:44:29.505Z,16.73
2018-09-17T03:45:29.547Z,16.67
2018-09-17T03:46:29.617Z,16.65
2018-09-17T03:47:29.637Z,16.68
2018-09-17T03:48:29.739Z,16.78
2018-09-17T03:49:29.777Z,16.78
2018-09-17T03:50:29.792Z,16.89
2018-09-17T03:51:29.837Z,16.75
2018-09-17T03:52:29.892Z,16.93
2018-09-17T03:53:29.935Z,16.95
2018-09-17T03:54:30.015Z,16.89
2018-09-17T03:55:30.038Z,16.89
2018-09-17T03:56:30.088Z,16.95
2018-09-17T03:57:30.152Z,16.86
2018-09-17T03:58:30.191Z,16.92
2018-09-17T03:59:30.258Z,16.96
2018-09-17T04:00:30.317Z,17.03
2018-09-17T04:01:30.338Z,17.07
2018-09-17T04:02:30.509Z,17.08
2018-09-17T04:03:30.438Z,17.07
2018-09-17T04:04:30.517Z,17.08
2018-09-17T04:05:30.544Z,17.15
2018-09-17T04:06:30.589Z,17.14
2018-09-17T04:07:30.637Z,17.11
2018-09-17T04:08:30.697Z,17.11
2018-09-17T04:09:30.768Z,17.18
2018-09-17T04:10:30.789Z,17.13
2018-09-17T04:11:30.871Z,17.26
2018-09-17T04:12:30.888Z,17.20
2018-09-17T04:13:30.939Z,17.25
2018-09-17T04:14:30.989Z,17.15
2018-09-17T04:15:31.041Z,17.22
2018-09-17T04:16:31.138Z,17.28
2018-09-17T04:17:31.143Z,17.20
2018-09-17T04:18:31.191Z,17.26
2018-09-17T04:19:31.240Z,17.20
2018-09-17T04:20:31.295Z,17.28
2018-09-17T04:21:31.369Z,17.26
2018-09-17T04:22:31.391Z,17.25
2018-09-17T04:23:31.443Z,17.22
2018-09-17T04:24:31.491Z,17.22
2018-09-17T04:25:31.564Z,17.22
2018-09-17T04:26:31.592Z,17.22
2018-09-17T04:27:31.643Z,17.20
2018-09-17T04:28:31.720Z,17.26
2018-09-17T04:29:31.737Z,17.32
2018-09-17T04:30:31.790Z,17.23
2018-09-17T04:31:31.857Z,17.23
2018-09-17T04:32:31.919Z,17.23
2018-09-17T04:33:31.953Z,17.28
2018-09-17T04:34:32.017Z,17.26
2018-09-17T04:35:32.044Z,17.18
2018-09-17T04:36:32.113Z,17.22
2018-09-17T04:37:32.168Z,17.28
2018-09-17T04:38:32.196Z,17.23
2018-09-17T04:39:32.267Z,17.11
2018-09-17T04:40:32.296Z,17.13
2018-09-17T04:41:32.362Z,17.13
2018-09-17T04:42:32.400Z,17.14
2018-09-17T04:43:32.443Z,17.17
2018-09-17T04:44:32.521Z,17.13
2018-09-17T04:45:32.565Z,17.22
2018-09-17T04:46:32.612Z,17.13
2018-09-17T04:47:32.653Z,17.14
2018-09-17T04:48:34.628Z,17.13
2018-09-17T04:49:34.628Z,17.18
2018-09-17T04:50:32.798Z,17.20
2018-09-17T04:51:32.846Z,17.13
2018-09-17T04:52:32.900Z,17.20
2018-09-17T04:53:32.952Z,17.23
2018-09-17T04:54:33.630Z,17.22
2018-09-17T04:55:33.048Z,17.28
2018-09-17T04:56:33.103Z,17.23
2018-09-17T04:57:33.156Z,17.26
2018-09-17T04:58:33.211Z,17.26
2018-09-17T04:59:33.662Z,17.26
2018-09-17T05:00:33.328Z,17.23
2018-09-17T05:01:33.347Z,17.20
2018-09-17T05:02:33.399Z,17.23
2018-09-17T05:03:33.455Z,17.20
2018-09-17T05:04:33.500Z,17.26
2018-09-17T05:05:33.647Z,17.22
2018-09-17T05:06:33.606Z,17.22
2018-09-17T05:07:33.647Z,17.20
2018-09-17T05:08:33.700Z,17.22
2018-09-17T05:09:33.754Z,17.28
2018-09-17T05:10:33.817Z,17.28
2018-09-17T05:11:33.851Z,17.26
2018-09-17T05:12:33.903Z,17.26
2018-09-17T05:13:34.001Z,17.25
2018-09-17T05:14:34.004Z,17.13
2018-09-17T05:15:34.069Z,17.14
2018-09-17T05:16:34.099Z,17.15
2018-09-17T05:17:34.189Z,17.25
2018-09-17T05:18:34.200Z,17.11
2018-09-17T05:19:34.253Z,17.15
2018-09-17T05:20:34.365Z,17.22
2018-09-17T05:21:34.376Z,17.29
2018-09-17T05:22:34.404Z,17.20
2018-09-17T05:23:34.485Z,17.17
2018-09-17T05:24:34.507Z,17.23
2018-09-17T05:25:35.447Z,17.25
2018-09-17T05:26:34.607Z,17.20
2018-09-17T05:27:34.657Z,17.25
2018-09-17T05:28:34.724Z,17.28
2018-09-17T05:29:34.769Z,17.18
2018-09-17T05:30:36.640Z,17.28
2018-09-17T05:31:34.859Z,17.23
2018-09-17T05:32:34.906Z,17.25
2018-09-17T05:33:34.976Z,17.25
2018-09-17T05:34:35.005Z,17.35
2018-09-17T05:35:35.054Z,17.26
2018-09-17T05:36:35.101Z,17.26
2018-09-17T05:37:35.156Z,17.29
2018-09-17T05:38:35.233Z,17.30
2018-09-17T05:39:35.253Z,17.35
2018-09-17T05:40:35.307Z,17.40
2018-09-17T05:41:35.355Z,17.33
2018-09-17T05:42:35.415Z,17.30
2018-09-17T05:43:35.481Z,17.29
2018-09-17T05:44:35.611Z,17.29
2018-09-17T05:45:35.576Z,17.38
2018-09-17T05:46:35.616Z,17.30
2018-09-17T05:47:35.665Z,17.48
2018-09-17T05:48:35.706Z,17.38
2018-09-17T05:49:35.781Z,17.38
2018-09-17T05:50:35.852Z,17.36
2018-09-17T05:51:35.881Z,17.46
2018-09-17T05:52:35.910Z,17.41
2018-09-17T05:53:35.982Z,17.48
2018-09-17T05:54:36.009Z,17.47
2018-09-17T05:55:36.064Z,17.47
2018-09-17T05:56:36.131Z,17.44
2018-09-17T05:57:36.161Z,17.33
2018-09-17T05:58:36.210Z,17.47
2018-09-17T05:59:36.304Z,17.36
2018-09-17T06:00:36.309Z,17.38
2018-09-17T06:01:36.362Z,17.44
2018-09-17T06:02:36.410Z,17.46
2018-09-17T06:03:36.471Z,17.41
2018-09-17T06:04:36.567Z,17.41
2018-09-17T06:05:36.624Z,17.48
2018-09-17T06:06:37.150Z,17.43
2018-09-17T06:07:36.660Z,17.46
2018-09-17T06:08:36.720Z,17.43
2018-09-17T06:09:36.776Z,17.51
2018-09-17T06:10:36.812Z,17.47
2018-09-17T06:11:36.898Z,17.48
2018-09-17T06:12:36.914Z,17.54
2018-09-17T06:13:36.962Z,17.51
2018-09-17T06:14:37.019Z,17.62
2018-09-17T06:15:37.090Z,17.67
2018-09-17T06:16:37.133Z,17.67
2018-09-17T06:17:37.164Z,17.73
2018-09-17T06:18:37.211Z,17.76
2018-09-17T06:19:37.267Z,17.76
2018-09-17T06:20:37.335Z,17.82
2018-09-17T06:21:37.393Z,17.81
2018-09-17T06:22:37.447Z,17.89
2018-09-17T06:23:37.467Z,18.00
2018-09-17T06:24:37.515Z,18.02
2018-09-17T06:25:37.579Z,17.97
2018-09-17T06:26:37.647Z,18.02
2018-09-17T06:27:37.693Z,18.15
2018-09-17T06:28:37.784Z,18.13
2018-09-17T06:29:37.805Z,18.19
2018-09-17T06:30:37.816Z,18.19
2018-09-17T06:31:37.865Z,18.27
2018-09-17T06:32:37.937Z,18.33
2018-09-17T06:33:37.997Z,18.36
2018-09-17T06:34:38.021Z,18.36
2018-09-17T06:35:38.069Z,18.34
2018-09-17T06:36:38.131Z,18.50
2018-09-17T06:37:38.202Z,18.49
2018-09-17T06:38:38.261Z,18.55
2018-09-17T06:39:38.274Z,18.58
2018-09-17T06:40:38.332Z,18.54
2018-09-17T06:41:38.425Z,18.57
2018-09-17T06:42:38.425Z,18.65
2018-09-17T06:43:38.498Z,18.67
2018-09-17T06:44:38.522Z,18.70
2018-09-17T06:45:38.578Z,18.67
2018-09-17T06:46:38.626Z,18.72
2018-09-17T06:47:38.680Z,18.79
2018-09-17T06:48:38.895Z,18.79
2018-09-17T06:49:38.777Z,18.82
2018-09-17T06:50:38.835Z,18.87
2018-09-17T06:51:38.880Z,18.92
2018-09-17T06:52:38.941Z,19.10
2018-09-17T06:53:39.059Z,19.20
2018-09-17T06:54:39.059Z,19.33
2018-09-17T06:55:39.199Z,19.40
2018-09-17T06:56:39.131Z,19.91
2018-09-17T06:57:39.190Z,20.15
2018-09-17T06:58:39.240Z,20.58
2018-09-17T06:59:39.306Z,20.41
2018-09-17T07:00:39.336Z,20.50
2018-09-17T07:01:39.394Z,20.46
2018-09-17T07:02:39.550Z,20.50
2018-09-17T07:03:39.496Z,20.35
2018-09-17T07:04:39.562Z,20.39
2018-09-17T07:05:39.610Z,20.42
2018-09-17T07:06:39.657Z,20.51
2018-09-17T07:07:39.702Z,20.50
2018-09-17T07:08:39.742Z,20.61
2018-09-17T07:09:39.890Z,20.72
2018-09-17T07:10:39.850Z,20.79
2018-09-17T07:11:39.898Z,21.19
2018-09-17T07:12:39.949Z,21.20
2018-09-17T07:13:40.007Z,21.09
2018-09-17T07:14:40.093Z,21.44
2018-09-17T07:15:40.105Z,22.12
2018-09-17T07:16:40.191Z,22.43
2018-09-17T07:17:40.210Z,22.90
2018-09-17T07:18:40.257Z,23.65
2018-09-17T07:19:40.344Z,24.31
2018-09-17T07:20:40.396Z,25.19
2018-09-17T07:21:40.414Z,25.82
2018-09-17T07:22:40.492Z,26.12
2018-09-17T07:23:40.513Z,26.29
2018-09-17T07:24:40.566Z,26.59
2018-09-17T07:25:40.646Z,26.91
2018-09-17T07:26:40.673Z,26.52
2018-09-17T07:27:40.727Z,25.84
2018-09-17T07:28:40.778Z,25.97
2018-09-17T07:29:40.833Z,26.12
2018-09-17T07:30:40.900Z,26.36
2018-09-17T07:31:40.950Z,26.72
2018-09-17T07:32:41.004Z,25.75
2018-09-17T07:33:41.053Z,25.15
2018-09-17T07:34:41.096Z,24.90
2018-09-17T07:35:41.145Z,25.05
2018-09-17T07:36:41.245Z,25.68
2018-09-17T07:37:41.253Z,25.57
2018-09-17T07:38:41.313Z,25.86
2018-09-17T07:39:41.360Z,25.02
2018-09-17T07:40:41.415Z,24.87
2018-09-17T07:41:41.486Z,25.12
2018-09-17T07:42:41.612Z,25.07
2018-09-17T07:43:41.572Z,25.22
2018-09-17T07:44:41.624Z,25.68
2018-09-17T07:45:41.682Z,25.94
2018-09-17T07:46:41.757Z,25.54
2018-09-17T07:47:41.787Z,25.15
2018-09-17T07:48:42.678Z,25.37
2018-09-17T07:49:41.891Z,24.87
2018-09-17T07:50:41.964Z,25.07
2018-09-17T07:51:41.998Z,25.53
2018-09-17T07:52:42.050Z,25.86
2018-09-17T07:53:42.107Z,26.55
2018-09-17T07:54:43.680Z,26.69
2018-09-17T07:55:42.238Z,27.01
2018-09-17T07:56:42.266Z,27.14
2018-09-17T07:57:42.334Z,27.62
2018-09-17T07:58:42.370Z,27.54
2018-09-17T07:59:42.429Z,27.17
2018-09-17T08:00:42.500Z,27.11
2018-09-17T08:01:42.539Z,27.26
2018-09-17T08:02:42.610Z,27.26
2018-09-17T08:03:42.649Z,27.50
2018-09-17T08:04:42.699Z,27.29
2018-09-17T08:05:42.773Z,27.10
2018-09-17T08:06:42.816Z,27.13
2018-09-17T08:07:42.880Z,26.89
2018-09-17T08:08:42.920Z,27.10
2018-09-17T08:09:42.975Z,26.96
2018-09-17T08:10:43.024Z,26.68
2018-09-17T08:11:43.097Z,26.79
2018-09-17T08:12:43.153Z,26.50
2018-09-17T08:13:43.200Z,26.22
2018-09-17T08:14:43.242Z,26.18
2018-09-17T08:15:43.299Z,26.43
2018-09-17T08:16:43.371Z,26.89
2018-09-17T08:17:43.410Z,26.65
2018-09-17T08:18:43.461Z,26.89
2018-09-17T08:19:43.601Z,27.02
2018-09-17T08:20:44.191Z,27.17
2018-09-17T08:21:43.662Z,27.21
2018-09-17T08:22:43.706Z,26.37
2018-09-17T08:23:43.742Z,25.53
2018-09-17T08:24:43.805Z,25.35
2018-09-17T08:25:43.845Z,25.65
2018-09-17T08:26:43.904Z,25.56
2018-09-17T08:27:43.957Z,25.94
2018-09-17T08:28:44.015Z,25.89
2018-09-17T08:29:44.090Z,26.35
2018-09-17T08:30:44.117Z,26.65
2018-09-17T08:31:44.170Z,27.05
2018-09-17T08:32:44.231Z,26.89
2018-09-17T08:33:44.284Z,27.21
2018-09-17T08:34:44.366Z,27.76
2018-09-17T08:35:44.411Z,28.26
2018-09-17T08:36:45.001Z,28.33
2018-09-17T08:37:44.505Z,27.89
2018-09-17T08:38:44.564Z,27.82
2018-09-17T08:39:44.637Z,27.48
2018-09-17T08:40:44.692Z,27.17
2018-09-17T08:41:44.722Z,27.23
2018-09-17T08:42:44.785Z,27.05
2018-09-17T08:43:44.838Z,27.23
2018-09-17T08:44:44.888Z,27.10
2018-09-17T08:45:44.965Z,27.42
2018-09-17T08:46:45.000Z,27.64
2018-09-17T08:47:45.054Z,27.92
2018-09-17T08:48:45.123Z,27.76
2018-09-17T08:49:45.166Z,28.06
2018-09-17T08:50:45.249Z,28.31
2018-09-17T08:51:45.280Z,28.36
2018-09-17T08:52:45.394Z,28.46
2018-09-17T08:53:45.396Z,28.33
2018-09-17T08:54:45.445Z,27.41
2018-09-17T08:55:45.533Z,27.48
2018-09-17T08:56:45.566Z,27.67
2018-09-17T08:57:45.632Z,27.69
2018-09-17T08:58:45.671Z,27.47
2018-09-17T08:59:45.731Z,27.62
2018-09-17T09:00:45.792Z,27.20
2018-09-17T09:01:45.869Z,27.35
2018-09-17T09:02:45.915Z,27.53
2018-09-17T09:03:45.954Z,27.32
2018-09-17T09:04:46.029Z,27.62
2018-09-17T09:05:46.073Z,27.74
2018-09-17T09:06:46.121Z,27.48
2018-09-17T09:07:46.230Z,27.53
2018-09-17T09:08:46.239Z,27.16
2018-09-17T09:09:46.291Z,26.89
2018-09-17T09:10:46.365Z,27.01
2018-09-17T09:11:46.416Z,27.38
2018-09-17T09:12:46.497Z,26.98
2018-09-17T09:13:46.528Z,27.26
2018-09-17T09:14:46.587Z,27.69
2018-09-17T09:15:46.631Z,27.91
2018-09-17T09:16:46.689Z,28.01
2018-09-17T09:17:46.768Z,28.17
2018-09-17T09:18:47.759Z,28.44
2018-09-17T09:19:46.857Z,28.36
2018-09-17T09:20:46.913Z,28.28
2018-09-17T09:21:47.721Z,27.74
2018-09-17T09:22:47.045Z,27.73
2018-09-17T09:23:47.084Z,27.98
2018-09-17T09:24:47.147Z,28.21
2018-09-17T09:25:47.196Z,27.48
2018-09-17T09:26:47.256Z,26.76
2018-09-17T09:27:47.337Z,26.81
2018-09-17T09:28:47.369Z,27.16
2018-09-17T09:29:47.440Z,27.16
2018-09-17T09:30:47.526Z,26.96
2018-09-17T09:31:47.544Z,26.49
2018-09-17T09:32:47.640Z,26.59
2018-09-17T09:33:47.695Z,27.10
2018-09-17T09:34:47.709Z,27.20
2018-09-17T09:35:47.774Z,27.58
2018-09-17T09:36:47.846Z,27.01
2018-09-17T09:37:47.884Z,26.74
2018-09-17T09:38:47.942Z,26.42
2018-09-17T09:39:47.995Z,26.11
2018-09-17T09:40:48.054Z,26.21
2018-09-17T09:41:48.131Z,25.50
2018-09-17T09:42:48.165Z,25.50
2018-09-17T09:43:48.223Z,25.64
2018-09-17T09:44:48.287Z,25.54
2018-09-17T09:45:48.360Z,25.49
2018-09-17T09:46:48.417Z,25.93
2018-09-17T09:47:48.459Z,26.12
2018-09-17T09:48:48.510Z,26.40
2018-09-17T09:49:48.591Z,26.80
2018-09-17T09:50:48.635Z,27.23
2018-09-17T09:51:48.683Z,27.04
2018-09-17T09:52:48.806Z,26.32
2018-09-17T09:53:48.799Z,26.18
2018-09-17T09:54:48.868Z,26.25
2018-09-17T09:55:48.906Z,26.08
2018-09-17T09:56:48.961Z,26.31
2018-09-17T09:57:49.016Z,26.62
2018-09-17T09:58:49.089Z,27.19
2018-09-17T09:59:49.153Z,27.41
2018-09-17T10:00:49.188Z,26.83
2018-09-17T10:01:49.245Z,26.22
2018-09-17T10:02:49.321Z,25.90
2018-09-17T10:03:49.392Z,25.80
2018-09-17T10:04:49.440Z,26.15
2018-09-17T10:05:49.477Z,26.74
2018-09-17T10:06:49.557Z,27.28
2018-09-17T10:07:49.625Z,27.43
2018-09-17T10:08:49.649Z,26.74
2018-09-17T10:09:49.720Z,26.35
2018-09-17T10:10:49.787Z,25.74
2018-09-17T10:11:49.825Z,25.80
2018-09-17T10:12:49.890Z,25.94
2018-09-17T10:13:49.920Z,26.47
2018-09-17T10:14:49.984Z,27.11
2018-09-17T10:15:50.070Z,27.51
2018-09-17T10:16:50.119Z,27.70
2018-09-17T10:17:50.159Z,27.04
2018-09-17T10:18:50.219Z,26.06
2018-09-17T10:19:50.269Z,25.89
2018-09-17T10:20:50.350Z,26.25
2018-09-17T10:21:50.388Z,26.17
2018-09-17T10:22:50.433Z,26.49
2018-09-17T10:23:50.598Z,26.08
2018-09-17T10:24:50.553Z,26.28
2018-09-17T10:25:50.657Z,26.20
2018-09-17T10:26:50.663Z,26.01
2018-09-17T10:27:50.723Z,25.68
2018-09-17T10:28:50.781Z,25.09
2018-09-17T10:29:50.836Z,25.00
2018-09-17T10:30:50.950Z,25.06
2018-09-17T10:31:50.963Z,25.15
2018-09-17T10:32:51.033Z,25.19
2018-09-17T10:33:51.076Z,25.68
2018-09-17T10:34:51.118Z,25.52
2018-09-17T10:35:51.177Z,24.79
2018-09-17T10:36:51.226Z,24.19
2018-09-17T10:37:51.306Z,24.41
2018-09-17T10:38:51.351Z,24.73
2018-09-17T10:39:51.414Z,25.07
2018-09-17T10:40:51.455Z,24.80
2018-09-17T10:41:51.536Z,25.05
2018-09-17T10:42:51.588Z,25.01
2018-09-17T10:43:51.626Z,24.75
2018-09-17T10:44:51.693Z,24.82
2018-09-17T10:45:51.741Z,24.68
2018-09-17T10:46:51.816Z,24.73
2018-09-17T10:47:51.868Z,25.06
2018-09-17T10:48:51.909Z,25.50
2018-09-17T10:49:52.764Z,25.64
2018-09-17T10:50:52.014Z,25.87
2018-09-17T10:51:52.074Z,25.65
2018-09-17T10:52:52.168Z,25.37
2018-09-17T10:53:52.182Z,25.25
2018-09-17T10:54:52.237Z,25.65
2018-09-17T10:55:52.306Z,25.54
2018-09-17T10:56:52.378Z,25.97
2018-09-17T10:57:52.422Z,26.06
2018-09-17T10:58:52.476Z,26.36
2018-09-17T10:59:52.516Z,25.86
2018-09-17T11:00:52.569Z,25.69
2018-09-17T11:01:52.637Z,26.08
2018-09-17T11:02:52.682Z,26.72
2018-09-17T11:03:52.808Z,26.87
2018-09-17T11:04:52.830Z,26.35
2018-09-17T11:05:52.850Z,25.89
2018-09-17T11:06:53.772Z,26.31
2018-09-17T11:07:52.968Z,26.91
2018-09-17T11:08:53.055Z,27.28
2018-09-17T11:09:53.089Z,26.94
2018-09-17T11:10:53.133Z,26.47
2018-09-17T11:11:53.204Z,25.32
2018-09-17T11:12:53.250Z,24.64
2018-09-17T11:13:53.353Z,24.39
2018-09-17T11:14:53.384Z,24.32
2018-09-17T11:15:53.426Z,24.37
2018-09-17T11:16:53.477Z,24.07
2018-09-17T11:17:53.539Z,24.14
2018-09-17T11:18:53.618Z,23.94
2018-09-17T11:19:53.651Z,23.94
2018-09-17T11:20:53.709Z,24.01
2018-09-17T11:21:54.585Z,24.05
2018-09-17T11:22:53.838Z,23.83
2018-09-17T11:23:53.894Z,23.60
2018-09-17T11:24:53.946Z,23.64
2018-09-17T11:25:53.989Z,23.87
2018-09-17T11:26:54.041Z,23.82
2018-09-17T11:27:54.093Z,24.12
2018-09-17T11:28:54.150Z,23.76
2018-09-17T11:29:54.235Z,23.46
2018-09-17T11:30:54.261Z,23.64
2018-09-17T11:31:54.321Z,23.79
2018-09-17T11:32:54.373Z,23.86
2018-09-17T11:33:54.429Z,23.75
2018-09-17T11:34:54.507Z,23.76
2018-09-17T11:35:54.569Z,23.71
2018-09-17T11:36:54.603Z,23.64
2018-09-17T11:37:54.674Z,23.39
2018-09-17T11:38:54.719Z,23.62
2018-09-17T11:39:54.790Z,24.02
2018-09-17T11:40:54.886Z,24.17
2018-09-17T11:41:54.879Z,23.76
2018-09-17T11:42:54.935Z,23.35
2018-09-17T11:43:54.993Z,23.67
2018-09-17T11:44:55.082Z,23.58
2018-09-17T11:45:55.115Z,23.79
2018-09-17T11:46:55.152Z,23.94
2018-09-17T11:47:55.207Z,23.89
2018-09-17T11:48:55.269Z,23.61
2018-09-17T11:49:55.352Z,23.11
2018-09-17T11:50:55.383Z,23.07
2018-09-17T11:51:55.437Z,23.34
2018-09-17T11:52:55.485Z,23.65
2018-09-17T11:53:55.553Z,23.62
2018-09-17T11:54:55.633Z,23.72
2018-09-17T11:55:55.652Z,24.08
2018-09-17T11:56:55.712Z,24.05
2018-09-17T11:57:55.762Z,24.39
2018-09-17T11:58:55.818Z,24.26
2018-09-17T11:59:55.901Z,24.34
2018-09-17T12:00:55.943Z,24.22
2018-09-17T12:01:56.067Z,24.02
2018-09-17T12:02:56.042Z,23.90
2018-09-17T12:03:56.107Z,23.61
2018-09-17T12:04:56.160Z,23.92
2018-09-17T12:05:56.206Z,24.39
2018-09-17T12:06:56.312Z,24.22
2018-09-17T12:07:56.327Z,24.60
2018-09-17T12:08:56.372Z,24.44
2018-09-17T12:09:56.428Z,24.73
2018-09-17T12:10:56.487Z,24.85
2018-09-17T12:11:56.583Z,24.88
2018-09-17T12:12:56.600Z,24.50
2018-09-17T12:13:56.656Z,24.41
2018-09-17T12:14:56.709Z,24.64
2018-09-17T12:15:56.769Z,24.45
2018-09-17T12:16:56.839Z,24.31
2018-09-17T12:17:56.882Z,24.20
2018-09-17T12:18:56.935Z,24.42
2018-09-17T12:19:56.999Z,24.19
2018-09-17T12:20:57.049Z,24.47
2018-09-17T12:21:57.146Z,24.52
2018-09-17T12:22:57.166Z,24.69
2018-09-17T12:23:57.229Z,24.53
2018-09-17T12:24:57.277Z,24.22
2018-09-17T12:25:57.341Z,24.49
2018-09-17T12:26:57.427Z,24.64
2018-09-17T12:27:57.446Z,24.87
2018-09-17T12:28:57.537Z,24.79
2018-09-17T12:29:57.566Z,24.77
2018-09-17T12:30:57.618Z,24.37
2018-09-17T12:31:57.674Z,23.86
2018-09-17T12:32:57.755Z,23.97
2018-09-17T12:33:57.921Z,24.31
2018-09-17T12:34:57.847Z,24.39
2018-09-17T12:35:57.913Z,24.50
2018-09-17T12:36:57.959Z,24.80
2018-09-17T12:37:58.054Z,25.32
2018-09-17T12:38:58.077Z,25.64
2018-09-17T12:39:58.136Z,25.64
2018-09-17T12:40:58.200Z,25.19
2018-09-17T12:41:58.249Z,24.22
2018-09-17T12:42:58.332Z,24.54
2018-09-17T12:43:58.503Z,24.63
2018-09-17T12:44:58.424Z,24.94
2018-09-17T12:45:58.516Z,25.02
2018-09-17T12:46:58.537Z,25.16
2018-09-17T12:47:58.603Z,25.20
2018-09-17T12:48:58.669Z,25.00
2018-09-17T12:49:58.711Z,24.31
2018-09-17T12:50:58.802Z,24.34
2018-09-17T12:51:58.828Z,24.53
2018-09-17T12:52:58.885Z,24.23